sensor_id;sensor_type;location;lat;lon;timestamp;P1;durP1;ratioP1;P2;durP2;ratioP2
17818;SDS011;9034;50.284;19.310;2022-07-19T00:00:33;9.48;;;5.22;;
17818;SDS011;9034;50.284;19.310;2022-07-19T00:01:37;7.72;;;5.38;;
17818;SDS011;9034;50.284;19.310;2022-07-19T00:02:41;7.68;;;4.75;;
17818;SDS011;9034;50.284;19.310;2022-07-19T00:03:46;7.25;;;5.13;;
17818;SDS011;9034;50.284;19.310;2022-07-19T00:04:55;5.82;;;4.63;;
17818;SDS011;9034;50.284;19.310;2022-07-19T00:05:59;9.10;;;5.32;;
17818;SDS011;9034;50.284;19.310;2022-07-19T00:07:03;10.57;;;5.55;;
17818;SDS011;9034;50.284;19.310;2022-07-19T00:08:09;5.80;;;4.72;;
17818;SDS011;9034;50.284;19.310;2022-07-19T00:09:17;9.48;;;4.88;;
17818;SDS011;9034;50.284;19.310;2022-07-19T00:10:35;7.57;;;4.75;;
17818;SDS011;9034;50.284;19.310;2022-07-19T00:11:39;6.80;;;4.75;;
17818;SDS011;9034;50.284;19.310;2022-07-19T00:12:43;9.18;;;4.78;;
17818;SDS011;9034;50.284;19.310;2022-07-19T00:13:48;10.85;;;5.35;;
17818;SDS011;9034;50.284;19.310;2022-07-19T00:14:52;7.97;;;5.15;;
17818;SDS011;9034;50.284;19.310;2022-07-19T00:15:57;10.43;;;5.82;;
17818;SDS011;9034;50.284;19.310;2022-07-19T00:17:00;9.30;;;5.38;;
17818;SDS011;9034;50.284;19.310;2022-07-19T00:18:04;7.97;;;5.22;;
17818;SDS011;9034;50.284;19.310;2022-07-19T00:19:08;12.38;;;5.75;;
17818;SDS011;9034;50.284;19.310;2022-07-19T00:20:13;9.90;;;6.13;;
17818;SDS011;9034;50.284;19.310;2022-07-19T00:21:17;15.65;;;6.97;;
17818;SDS011;9034;50.284;19.310;2022-07-19T00:22:22;11.50;;;6.53;;
17818;SDS011;9034;50.284;19.310;2022-07-19T00:23:30;14.98;;;6.40;;
17818;SDS011;9034;50.284;19.310;2022-07-19T00:24:34;12.00;;;6.43;;
17818;SDS011;9034;50.284;19.310;2022-07-19T00:25:38;10.02;;;5.85;;
17818;SDS011;9034;50.284;19.310;2022-07-19T00:26:43;10.65;;;5.53;;
17818;SDS011;9034;50.284;19.310;2022-07-19T00:27:47;8.18;;;5.57;;
17818;SDS011;9034;50.284;19.310;2022-07-19T00:28:51;10.55;;;5.82;;
17818;SDS011;9034;50.284;19.310;2022-07-19T00:30:11;8.90;;;5.35;;
17818;SDS011;9034;50.284;19.310;2022-07-19T00:31:16;8.88;;;5.47;;
17818;SDS011;9034;50.284;19.310;2022-07-19T00:32:20;8.43;;;5.05;;
17818;SDS011;9034;50.284;19.310;2022-07-19T00:33:24;7.80;;;4.85;;
17818;SDS011;9034;50.284;19.310;2022-07-19T00:34:28;11.32;;;5.60;;
17818;SDS011;9034;50.284;19.310;2022-07-19T00:35:32;8.40;;;5.50;;
17818;SDS011;9034;50.284;19.310;2022-07-19T00:36:36;10.23;;;5.40;;
17818;SDS011;9034;50.284;19.310;2022-07-19T00:37:40;9.75;;;5.25;;
17818;SDS011;9034;50.284;19.310;2022-07-19T00:38:51;9.70;;;5.75;;
17818;SDS011;9034;50.284;19.310;2022-07-19T00:39:54;11.05;;;6.15;;
17818;SDS011;9034;50.284;19.310;2022-07-19T00:41:00;11.00;;;5.60;;
17818;SDS011;9034;50.284;19.310;2022-07-19T00:42:04;11.27;;;5.97;;
17818;SDS011;9034;50.284;19.310;2022-07-19T00:43:09;9.38;;;5.50;;
17818;SDS011;9034;50.284;19.310;2022-07-19T00:44:13;9.10;;;5.90;;
17818;SDS011;9034;50.284;19.310;2022-07-19T00:45:17;15.23;;;6.28;;
17818;SDS011;9034;50.284;19.310;2022-07-19T00:46:21;8.07;;;5.30;;
17818;SDS011;9034;50.284;19.310;2022-07-19T00:47:26;11.48;;;5.72;;
17818;SDS011;9034;50.284;19.310;2022-07-19T00:48:32;11.25;;;6.88;;
17818;SDS011;9034;50.284;19.310;2022-07-19T00:49:36;11.32;;;6.68;;
17818;SDS011;9034;50.284;19.310;2022-07-19T00:50:43;11.20;;;5.88;;
17818;SDS011;9034;50.284;19.310;2022-07-19T00:51:47;10.40;;;6.50;;
17818;SDS011;9034;50.284;19.310;2022-07-19T00:52:56;13.70;;;6.50;;
17818;SDS011;9034;50.284;19.310;2022-07-19T00:54:04;10.90;;;6.05;;
17818;SDS011;9034;50.284;19.310;2022-07-19T00:55:08;7.65;;;5.28;;
17818;SDS011;9034;50.284;19.310;2022-07-19T00:56:13;12.50;;;6.65;;
17818;SDS011;9034;50.284;19.310;2022-07-19T00:57:17;8.60;;;5.70;;
17818;SDS011;9034;50.284;19.310;2022-07-19T00:58:24;10.90;;;6.43;;
17818;SDS011;9034;50.284;19.310;2022-07-19T00:59:29;9.27;;;5.93;;
17818;SDS011;9034;50.284;19.310;2022-07-19T01:00:34;11.82;;;5.97;;
17818;SDS011;9034;50.284;19.310;2022-07-19T01:01:38;12.13;;;6.57;;
17818;SDS011;9034;50.284;19.310;2022-07-19T01:02:44;11.55;;;6.40;;
17818;SDS011;9034;50.284;19.310;2022-07-19T01:03:47;10.85;;;6.28;;
17818;SDS011;9034;50.284;19.310;2022-07-19T01:04:52;14.05;;;6.35;;
17818;SDS011;9034;50.284;19.310;2022-07-19T01:05:58;12.65;;;6.90;;
17818;SDS011;9034;50.284;19.310;2022-07-19T01:07:03;12.80;;;6.47;;
17818;SDS011;9034;50.284;19.310;2022-07-19T01:08:06;13.20;;;7.18;;
17818;SDS011;9034;50.284;19.310;2022-07-19T01:09:15;13.07;;;6.90;;
17818;SDS011;9034;50.284;19.310;2022-07-19T01:10:18;8.90;;;5.57;;
17818;SDS011;9034;50.284;19.310;2022-07-19T01:11:23;10.65;;;5.63;;
17818;SDS011;9034;50.284;19.310;2022-07-19T01:12:26;11.15;;;6.47;;
17818;SDS011;9034;50.284;19.310;2022-07-19T01:13:32;11.77;;;6.32;;
17818;SDS011;9034;50.284;19.310;2022-07-19T01:15:22;9.68;;;6.78;;
17818;SDS011;9034;50.284;19.310;2022-07-19T01:16:27;14.25;;;6.68;;
17818;SDS011;9034;50.284;19.310;2022-07-19T01:17:32;13.25;;;6.75;;
17818;SDS011;9034;50.284;19.310;2022-07-19T01:18:38;10.73;;;6.15;;
17818;SDS011;9034;50.284;19.310;2022-07-19T01:19:43;15.02;;;6.32;;
17818;SDS011;9034;50.284;19.310;2022-07-19T01:20:46;9.90;;;6.13;;
17818;SDS011;9034;50.284;19.310;2022-07-19T01:21:52;13.60;;;6.90;;
17818;SDS011;9034;50.284;19.310;2022-07-19T01:22:56;13.43;;;6.65;;
17818;SDS011;9034;50.284;19.310;2022-07-19T01:24:00;10.38;;;6.45;;
17818;SDS011;9034;50.284;19.310;2022-07-19T01:25:04;16.00;;;7.18;;
17818;SDS011;9034;50.284;19.310;2022-07-19T01:26:09;13.20;;;6.82;;
17818;SDS011;9034;50.284;19.310;2022-07-19T01:27:13;12.10;;;6.57;;
17818;SDS011;9034;50.284;19.310;2022-07-19T01:28:17;11.93;;;6.60;;
17818;SDS011;9034;50.284;19.310;2022-07-19T01:29:21;12.98;;;6.75;;
17818;SDS011;9034;50.284;19.310;2022-07-19T01:30:27;13.63;;;6.80;;
17818;SDS011;9034;50.284;19.310;2022-07-19T01:31:31;13.10;;;6.40;;
17818;SDS011;9034;50.284;19.310;2022-07-19T01:32:36;12.10;;;6.75;;
17818;SDS011;9034;50.284;19.310;2022-07-19T01:33:40;12.63;;;6.35;;
17818;SDS011;9034;50.284;19.310;2022-07-19T01:34:45;11.75;;;6.22;;
17818;SDS011;9034;50.284;19.310;2022-07-19T01:35:48;13.95;;;7.20;;
17818;SDS011;9034;50.284;19.310;2022-07-19T01:36:54;11.13;;;6.43;;
17818;SDS011;9034;50.284;19.310;2022-07-19T01:37:58;14.98;;;6.80;;
17818;SDS011;9034;50.284;19.310;2022-07-19T01:39:03;12.50;;;6.32;;
17818;SDS011;9034;50.284;19.310;2022-07-19T01:40:07;10.15;;;6.45;;
17818;SDS011;9034;50.284;19.310;2022-07-19T01:41:13;11.00;;;7.13;;
17818;SDS011;9034;50.284;19.310;2022-07-19T01:42:17;12.82;;;6.55;;
17818;SDS011;9034;50.284;19.310;2022-07-19T01:43:21;12.02;;;6.95;;
17818;SDS011;9034;50.284;19.310;2022-07-19T01:44:26;11.07;;;6.60;;
17818;SDS011;9034;50.284;19.310;2022-07-19T01:45:43;11.38;;;6.47;;
17818;SDS011;9034;50.284;19.310;2022-07-19T01:46:48;12.68;;;6.65;;
17818;SDS011;9034;50.284;19.310;2022-07-19T01:47:51;14.00;;;6.35;;
17818;SDS011;9034;50.284;19.310;2022-07-19T01:48:56;13.52;;;6.50;;
17818;SDS011;9034;50.284;19.310;2022-07-19T01:50:01;11.15;;;6.68;;
17818;SDS011;9034;50.284;19.310;2022-07-19T01:51:05;13.57;;;5.97;;
17818;SDS011;9034;50.284;19.310;2022-07-19T01:52:10;9.98;;;5.90;;
17818;SDS011;9034;50.284;19.310;2022-07-19T01:53:14;10.38;;;5.97;;
17818;SDS011;9034;50.284;19.310;2022-07-19T01:54:18;12.30;;;5.80;;
17818;SDS011;9034;50.284;19.310;2022-07-19T01:55:30;10.90;;;6.95;;
17818;SDS011;9034;50.284;19.310;2022-07-19T01:56:41;14.20;;;5.95;;
17818;SDS011;9034;50.284;19.310;2022-07-19T01:58:03;12.98;;;6.15;;
17818;SDS011;9034;50.284;19.310;2022-07-19T01:59:07;8.85;;;6.10;;
17818;SDS011;9034;50.284;19.310;2022-07-19T02:00:13;14.30;;;6.30;;
17818;SDS011;9034;50.284;19.310;2022-07-19T02:01:16;13.50;;;6.68;;
17818;SDS011;9034;50.284;19.310;2022-07-19T02:02:22;12.07;;;6.45;;
17818;SDS011;9034;50.284;19.310;2022-07-19T02:03:25;11.05;;;6.40;;
17818;SDS011;9034;50.284;19.310;2022-07-19T02:04:30;12.02;;;6.30;;
17818;SDS011;9034;50.284;19.310;2022-07-19T02:05:34;9.02;;;5.97;;
17818;SDS011;9034;50.284;19.310;2022-07-19T02:06:39;10.80;;;6.32;;
17818;SDS011;9034;50.284;19.310;2022-07-19T02:07:44;10.18;;;5.97;;
17818;SDS011;9034;50.284;19.310;2022-07-19T02:08:50;13.38;;;6.78;;
17818;SDS011;9034;50.284;19.310;2022-07-19T02:09:53;10.60;;;6.22;;
17818;SDS011;9034;50.284;19.310;2022-07-19T02:11:00;9.68;;;5.65;;
17818;SDS011;9034;50.284;19.310;2022-07-19T02:12:24;11.18;;;5.70;;
17818;SDS011;9034;50.284;19.310;2022-07-19T02:13:28;11.07;;;6.57;;
17818;SDS011;9034;50.284;19.310;2022-07-19T02:14:33;10.43;;;5.90;;
17818;SDS011;9034;50.284;19.310;2022-07-19T02:15:36;11.57;;;6.65;;
17818;SDS011;9034;50.284;19.310;2022-07-19T02:16:41;13.93;;;6.82;;
17818;SDS011;9034;50.284;19.310;2022-07-19T02:17:45;8.52;;;5.63;;
17818;SDS011;9034;50.284;19.310;2022-07-19T02:18:49;11.13;;;5.93;;
17818;SDS011;9034;50.284;19.310;2022-07-19T02:19:53;9.43;;;6.45;;
17818;SDS011;9034;50.284;19.310;2022-07-19T02:20:57;8.77;;;5.57;;
17818;SDS011;9034;50.284;19.310;2022-07-19T02:22:02;9.30;;;5.30;;
17818;SDS011;9034;50.284;19.310;2022-07-19T02:23:06;13.88;;;6.07;;
17818;SDS011;9034;50.284;19.310;2022-07-19T02:24:11;10.27;;;5.95;;
17818;SDS011;9034;50.284;19.310;2022-07-19T02:25:14;10.15;;;5.90;;
17818;SDS011;9034;50.284;19.310;2022-07-19T02:26:18;9.43;;;5.95;;
17818;SDS011;9034;50.284;19.310;2022-07-19T02:27:22;10.57;;;5.72;;
17818;SDS011;9034;50.284;19.310;2022-07-19T02:28:26;8.32;;;5.43;;
17818;SDS011;9034;50.284;19.310;2022-07-19T02:29:30;10.48;;;6.43;;
17818;SDS011;9034;50.284;19.310;2022-07-19T02:30:34;12.40;;;6.80;;
17818;SDS011;9034;50.284;19.310;2022-07-19T02:31:39;7.68;;;5.70;;
17818;SDS011;9034;50.284;19.310;2022-07-19T02:32:43;11.23;;;6.15;;
17818;SDS011;9034;50.284;19.310;2022-07-19T02:33:47;13.15;;;6.70;;
17818;SDS011;9034;50.284;19.310;2022-07-19T02:34:50;10.05;;;5.80;;
17818;SDS011;9034;50.284;19.310;2022-07-19T02:35:55;10.82;;;6.43;;
17818;SDS011;9034;50.284;19.310;2022-07-19T02:36:58;11.25;;;5.80;;
17818;SDS011;9034;50.284;19.310;2022-07-19T02:38:02;12.02;;;6.45;;
17818;SDS011;9034;50.284;19.310;2022-07-19T02:39:09;9.95;;;6.30;;
17818;SDS011;9034;50.284;19.310;2022-07-19T02:40:12;10.38;;;7.38;;
17818;SDS011;9034;50.284;19.310;2022-07-19T02:41:16;7.20;;;5.20;;
17818;SDS011;9034;50.284;19.310;2022-07-19T02:42:20;12.32;;;6.40;;
17818;SDS011;9034;50.284;19.310;2022-07-19T02:43:24;10.10;;;5.72;;
17818;SDS011;9034;50.284;19.310;2022-07-19T02:44:27;9.05;;;6.45;;
17818;SDS011;9034;50.284;19.310;2022-07-19T02:45:32;11.45;;;6.40;;
17818;SDS011;9034;50.284;19.310;2022-07-19T02:46:35;10.50;;;6.13;;
17818;SDS011;9034;50.284;19.310;2022-07-19T02:47:39;9.18;;;6.20;;
17818;SDS011;9034;50.284;19.310;2022-07-19T02:48:43;9.35;;;5.57;;
17818;SDS011;9034;50.284;19.310;2022-07-19T02:49:53;9.90;;;5.70;;
17818;SDS011;9034;50.284;19.310;2022-07-19T02:50:57;9.95;;;6.30;;
17818;SDS011;9034;50.284;19.310;2022-07-19T02:52:01;8.68;;;5.32;;
17818;SDS011;9034;50.284;19.310;2022-07-19T02:53:05;11.95;;;6.35;;
17818;SDS011;9034;50.284;19.310;2022-07-19T02:54:10;9.90;;;6.00;;
17818;SDS011;9034;50.284;19.310;2022-07-19T02:55:14;11.43;;;5.97;;
17818;SDS011;9034;50.284;19.310;2022-07-19T02:56:18;13.15;;;7.00;;
17818;SDS011;9034;50.284;19.310;2022-07-19T02:57:22;10.75;;;6.28;;
17818;SDS011;9034;50.284;19.310;2022-07-19T02:58:26;11.35;;;6.70;;
17818;SDS011;9034;50.284;19.310;2022-07-19T02:59:29;10.13;;;6.55;;
17818;SDS011;9034;50.284;19.310;2022-07-19T03:00:34;11.13;;;5.88;;
17818;SDS011;9034;50.284;19.310;2022-07-19T03:01:41;11.30;;;6.30;;
17818;SDS011;9034;50.284;19.310;2022-07-19T03:02:46;12.40;;;6.18;;
17818;SDS011;9034;50.284;19.310;2022-07-19T03:03:49;11.10;;;6.55;;
17818;SDS011;9034;50.284;19.310;2022-07-19T03:04:54;10.52;;;6.55;;
17818;SDS011;9034;50.284;19.310;2022-07-19T03:05:57;9.68;;;5.53;;
17818;SDS011;9034;50.284;19.310;2022-07-19T03:07:02;8.35;;;5.68;;
17818;SDS011;9034;50.284;19.310;2022-07-19T03:08:06;7.88;;;5.80;;
17818;SDS011;9034;50.284;19.310;2022-07-19T03:09:11;9.52;;;6.18;;
17818;SDS011;9034;50.284;19.310;2022-07-19T03:10:16;10.15;;;6.07;;
17818;SDS011;9034;50.284;19.310;2022-07-19T03:11:19;10.52;;;6.00;;
17818;SDS011;9034;50.284;19.310;2022-07-19T03:12:24;12.68;;;6.32;;
17818;SDS011;9034;50.284;19.310;2022-07-19T03:13:28;11.65;;;6.20;;
17818;SDS011;9034;50.284;19.310;2022-07-19T03:14:32;14.10;;;6.32;;
17818;SDS011;9034;50.284;19.310;2022-07-19T03:15:36;12.20;;;5.70;;
17818;SDS011;9034;50.284;19.310;2022-07-19T03:16:40;9.13;;;5.30;;
17818;SDS011;9034;50.284;19.310;2022-07-19T03:17:44;10.88;;;6.13;;
17818;SDS011;9034;50.284;19.310;2022-07-19T03:18:47;14.82;;;6.15;;
17818;SDS011;9034;50.284;19.310;2022-07-19T03:19:52;10.07;;;5.68;;
17818;SDS011;9034;50.284;19.310;2022-07-19T03:20:55;10.73;;;5.50;;
17818;SDS011;9034;50.284;19.310;2022-07-19T03:22:00;8.27;;;6.32;;
17818;SDS011;9034;50.284;19.310;2022-07-19T03:23:03;10.15;;;5.72;;
17818;SDS011;9034;50.284;19.310;2022-07-19T03:24:08;8.68;;;4.93;;
17818;SDS011;9034;50.284;19.310;2022-07-19T03:25:14;7.75;;;4.93;;
17818;SDS011;9034;50.284;19.310;2022-07-19T03:26:17;10.63;;;5.88;;
17818;SDS011;9034;50.284;19.310;2022-07-19T03:27:21;9.85;;;6.05;;
17818;SDS011;9034;50.284;19.310;2022-07-19T03:28:25;9.52;;;5.22;;
17818;SDS011;9034;50.284;19.310;2022-07-19T03:29:29;11.38;;;5.95;;
17818;SDS011;9034;50.284;19.310;2022-07-19T03:30:33;11.10;;;5.22;;
17818;SDS011;9034;50.284;19.310;2022-07-19T03:31:37;9.73;;;5.30;;
17818;SDS011;9034;50.284;19.310;2022-07-19T03:32:41;8.85;;;5.57;;
17818;SDS011;9034;50.284;19.310;2022-07-19T03:33:45;9.95;;;5.47;;
17818;SDS011;9034;50.284;19.310;2022-07-19T03:34:48;10.30;;;5.43;;
17818;SDS011;9034;50.284;19.310;2022-07-19T03:35:53;14.07;;;5.35;;
17818;SDS011;9034;50.284;19.310;2022-07-19T03:36:56;7.72;;;5.18;;
17818;SDS011;9034;50.284;19.310;2022-07-19T03:38:00;10.48;;;5.53;;
17818;SDS011;9034;50.284;19.310;2022-07-19T03:39:04;8.60;;;5.40;;
17818;SDS011;9034;50.284;19.310;2022-07-19T03:40:09;7.07;;;5.10;;
17818;SDS011;9034;50.284;19.310;2022-07-19T03:41:14;9.63;;;5.95;;
17818;SDS011;9034;50.284;19.310;2022-07-19T03:42:19;6.20;;;5.18;;
17818;SDS011;9034;50.284;19.310;2022-07-19T03:43:22;9.07;;;5.68;;
17818;SDS011;9034;50.284;19.310;2022-07-19T03:44:26;7.43;;;5.13;;
17818;SDS011;9034;50.284;19.310;2022-07-19T03:45:30;8.60;;;5.85;;
17818;SDS011;9034;50.284;19.310;2022-07-19T03:46:34;5.75;;;4.80;;
17818;SDS011;9034;50.284;19.310;2022-07-19T03:47:39;8.27;;;5.00;;
17818;SDS011;9034;50.284;19.310;2022-07-19T03:48:42;12.23;;;5.55;;
17818;SDS011;9034;50.284;19.310;2022-07-19T03:49:46;10.88;;;6.38;;
17818;SDS011;9034;50.284;19.310;2022-07-19T03:50:50;8.77;;;5.78;;
17818;SDS011;9034;50.284;19.310;2022-07-19T03:51:54;9.30;;;4.90;;
17818;SDS011;9034;50.284;19.310;2022-07-19T03:52:58;8.55;;;5.28;;
17818;SDS011;9034;50.284;19.310;2022-07-19T03:54:02;7.20;;;5.05;;
17818;SDS011;9034;50.284;19.310;2022-07-19T03:55:05;9.40;;;5.47;;
17818;SDS011;9034;50.284;19.310;2022-07-19T03:56:11;6.50;;;4.85;;
17818;SDS011;9034;50.284;19.310;2022-07-19T03:57:17;8.18;;;5.47;;
17818;SDS011;9034;50.284;19.310;2022-07-19T03:58:20;8.00;;;5.32;;
17818;SDS011;9034;50.284;19.310;2022-07-19T03:59:24;8.15;;;5.65;;
17818;SDS011;9034;50.284;19.310;2022-07-19T04:00:28;8.95;;;4.90;;
17818;SDS011;9034;50.284;19.310;2022-07-19T04:01:32;8.23;;;5.60;;
17818;SDS011;9034;50.284;19.310;2022-07-19T04:02:36;10.43;;;6.47;;
17818;SDS011;9034;50.284;19.310;2022-07-19T04:03:41;7.55;;;5.10;;
17818;SDS011;9034;50.284;19.310;2022-07-19T04:04:45;10.88;;;5.30;;
17818;SDS011;9034;50.284;19.310;2022-07-19T04:05:49;10.65;;;5.10;;
17818;SDS011;9034;50.284;19.310;2022-07-19T04:06:53;11.88;;;6.60;;
17818;SDS011;9034;50.284;19.310;2022-07-19T04:07:56;9.13;;;5.05;;
17818;SDS011;9034;50.284;19.310;2022-07-19T04:09:01;6.40;;;5.00;;
17818;SDS011;9034;50.284;19.310;2022-07-19T04:10:05;9.88;;;5.50;;
17818;SDS011;9034;50.284;19.310;2022-07-19T04:11:10;8.98;;;5.93;;
17818;SDS011;9034;50.284;19.310;2022-07-19T04:12:16;9.35;;;5.05;;
17818;SDS011;9034;50.284;19.310;2022-07-19T04:13:19;9.00;;;5.22;;
17818;SDS011;9034;50.284;19.310;2022-07-19T04:14:24;8.77;;;5.18;;
17818;SDS011;9034;50.284;19.310;2022-07-19T04:15:27;9.05;;;5.28;;
17818;SDS011;9034;50.284;19.310;2022-07-19T04:16:31;9.30;;;5.35;;
17818;SDS011;9034;50.284;19.310;2022-07-19T04:17:35;6.63;;;4.68;;
17818;SDS011;9034;50.284;19.310;2022-07-19T04:18:40;7.15;;;5.32;;
17818;SDS011;9034;50.284;19.310;2022-07-19T04:19:44;7.93;;;4.93;;
17818;SDS011;9034;50.284;19.310;2022-07-19T04:20:47;8.55;;;4.63;;
17818;SDS011;9034;50.284;19.310;2022-07-19T04:21:52;7.63;;;4.80;;
17818;SDS011;9034;50.284;19.310;2022-07-19T04:22:55;6.68;;;4.28;;
17818;SDS011;9034;50.284;19.310;2022-07-19T04:23:59;9.93;;;5.53;;
17818;SDS011;9034;50.284;19.310;2022-07-19T04:25:11;9.60;;;4.80;;
17818;SDS011;9034;50.284;19.310;2022-07-19T04:26:15;9.48;;;5.60;;
17818;SDS011;9034;50.284;19.310;2022-07-19T04:27:20;6.38;;;4.43;;
17818;SDS011;9034;50.284;19.310;2022-07-19T04:28:24;7.88;;;4.40;;
17818;SDS011;9034;50.284;19.310;2022-07-19T04:29:29;6.90;;;4.63;;
17818;SDS011;9034;50.284;19.310;2022-07-19T04:30:32;9.43;;;5.10;;
17818;SDS011;9034;50.284;19.310;2022-07-19T04:31:36;9.38;;;5.40;;
17818;SDS011;9034;50.284;19.310;2022-07-19T04:32:40;8.98;;;5.47;;
17818;SDS011;9034;50.284;19.310;2022-07-19T04:33:44;10.95;;;5.53;;
17818;SDS011;9034;50.284;19.310;2022-07-19T04:34:48;11.05;;;6.15;;
17818;SDS011;9034;50.284;19.310;2022-07-19T04:35:52;9.70;;;5.28;;
17818;SDS011;9034;50.284;19.310;2022-07-19T04:36:57;9.77;;;5.05;;
17818;SDS011;9034;50.284;19.310;2022-07-19T04:38:00;11.45;;;5.53;;
17818;SDS011;9034;50.284;19.310;2022-07-19T04:39:04;11.52;;;5.32;;
17818;SDS011;9034;50.284;19.310;2022-07-19T04:40:08;11.73;;;5.00;;
17818;SDS011;9034;50.284;19.310;2022-07-19T04:41:12;10.63;;;5.22;;
17818;SDS011;9034;50.284;19.310;2022-07-19T04:42:16;9.15;;;5.00;;
17818;SDS011;9034;50.284;19.310;2022-07-19T04:43:21;14.00;;;5.00;;
17818;SDS011;9034;50.284;19.310;2022-07-19T04:44:25;7.00;;;5.07;;
17818;SDS011;9034;50.284;19.310;2022-07-19T04:45:29;11.00;;;5.05;;
17818;SDS011;9034;50.284;19.310;2022-07-19T04:46:34;10.85;;;5.70;;
17818;SDS011;9034;50.284;19.310;2022-07-19T04:47:37;9.68;;;5.10;;
17818;SDS011;9034;50.284;19.310;2022-07-19T04:48:41;9.13;;;4.95;;
17818;SDS011;9034;50.284;19.310;2022-07-19T04:49:45;8.32;;;4.97;;
17818;SDS011;9034;50.284;19.310;2022-07-19T04:50:49;9.93;;;4.82;;
17818;SDS011;9034;50.284;19.310;2022-07-19T04:51:52;8.55;;;4.95;;
17818;SDS011;9034;50.284;19.310;2022-07-19T04:52:57;6.97;;;4.60;;
17818;SDS011;9034;50.284;19.310;2022-07-19T04:54:00;6.90;;;4.60;;
17818;SDS011;9034;50.284;19.310;2022-07-19T04:55:05;10.77;;;5.05;;
17818;SDS011;9034;50.284;19.310;2022-07-19T04:56:10;14.98;;;5.97;;
17818;SDS011;9034;50.284;19.310;2022-07-19T04:57:13;8.77;;;4.57;;
17818;SDS011;9034;50.284;19.310;2022-07-19T04:58:18;10.60;;;4.80;;
17818;SDS011;9034;50.284;19.310;2022-07-19T04:59:23;9.95;;;4.60;;
17818;SDS011;9034;50.284;19.310;2022-07-19T05:00:27;14.18;;;5.40;;
17818;SDS011;9034;50.284;19.310;2022-07-19T05:01:31;9.05;;;4.60;;
17818;SDS011;9034;50.284;19.310;2022-07-19T05:02:35;4.80;;;3.83;;
17818;SDS011;9034;50.284;19.310;2022-07-19T05:03:39;6.32;;;4.65;;
17818;SDS011;9034;50.284;19.310;2022-07-19T05:04:43;8.55;;;4.70;;
17818;SDS011;9034;50.284;19.310;2022-07-19T05:05:47;7.45;;;4.78;;
17818;SDS011;9034;50.284;19.310;2022-07-19T05:06:51;14.18;;;5.35;;
17818;SDS011;9034;50.284;19.310;2022-07-19T05:07:59;15.65;;;4.80;;
17818;SDS011;9034;50.284;19.310;2022-07-19T05:09:03;14.23;;;4.90;;
17818;SDS011;9034;50.284;19.310;2022-07-19T05:10:07;8.70;;;4.47;;
17818;SDS011;9034;50.284;19.310;2022-07-19T05:11:12;13.45;;;4.95;;
17818;SDS011;9034;50.284;19.310;2022-07-19T05:12:15;7.07;;;4.60;;
17818;SDS011;9034;50.284;19.310;2022-07-19T05:13:19;6.70;;;3.65;;
17818;SDS011;9034;50.284;19.310;2022-07-19T05:14:24;15.05;;;4.70;;
17818;SDS011;9034;50.284;19.310;2022-07-19T05:15:28;8.75;;;4.07;;
17818;SDS011;9034;50.284;19.310;2022-07-19T05:16:32;10.23;;;4.00;;
17818;SDS011;9034;50.284;19.310;2022-07-19T05:17:36;9.23;;;3.92;;
17818;SDS011;9034;50.284;19.310;2022-07-19T05:18:39;7.35;;;3.88;;
17818;SDS011;9034;50.284;19.310;2022-07-19T05:19:44;7.70;;;3.55;;
17818;SDS011;9034;50.284;19.310;2022-07-19T05:20:47;6.05;;;3.55;;
17818;SDS011;9034;50.284;19.310;2022-07-19T05:21:51;6.32;;;3.72;;
17818;SDS011;9034;50.284;19.310;2022-07-19T05:22:55;5.80;;;3.55;;
17818;SDS011;9034;50.284;19.310;2022-07-19T05:24:00;6.38;;;3.47;;
17818;SDS011;9034;50.284;19.310;2022-07-19T05:25:03;6.20;;;3.35;;
17818;SDS011;9034;50.284;19.310;2022-07-19T05:26:08;5.80;;;4.00;;
17818;SDS011;9034;50.284;19.310;2022-07-19T05:27:12;7.10;;;3.22;;
17818;SDS011;9034;50.284;19.310;2022-07-19T05:28:16;11.10;;;4.27;;
17818;SDS011;9034;50.284;19.310;2022-07-19T05:29:19;5.57;;;3.72;;
17818;SDS011;9034;50.284;19.310;2022-07-19T05:30:25;8.18;;;4.00;;
17818;SDS011;9034;50.284;19.310;2022-07-19T05:31:30;5.43;;;3.63;;
17818;SDS011;9034;50.284;19.310;2022-07-19T05:32:35;7.13;;;3.63;;
17818;SDS011;9034;50.284;19.310;2022-07-19T05:33:38;3.73;;;3.23;;
17818;SDS011;9034;50.284;19.310;2022-07-19T05:34:44;5.57;;;3.80;;
17818;SDS011;9034;50.284;19.310;2022-07-19T05:35:48;5.07;;;3.10;;
17818;SDS011;9034;50.284;19.310;2022-07-19T05:36:52;5.80;;;3.77;;
17818;SDS011;9034;50.284;19.310;2022-07-19T05:37:55;17.40;;;5.43;;
17818;SDS011;9034;50.284;19.310;2022-07-19T05:39:00;7.03;;;3.50;;
17818;SDS011;9034;50.284;19.310;2022-07-19T05:40:03;12.00;;;4.20;;
17818;SDS011;9034;50.284;19.310;2022-07-19T05:41:09;6.40;;;3.90;;
17818;SDS011;9034;50.284;19.310;2022-07-19T05:42:13;8.80;;;4.63;;
17818;SDS011;9034;50.284;19.310;2022-07-19T05:43:17;5.07;;;3.53;;
17818;SDS011;9034;50.284;19.310;2022-07-19T05:44:20;7.53;;;3.33;;
17818;SDS011;9034;50.284;19.310;2022-07-19T05:45:26;6.53;;;4.00;;
17818;SDS011;9034;50.284;19.310;2022-07-19T05:46:29;8.40;;;4.47;;
17818;SDS011;9034;50.284;19.310;2022-07-19T05:47:34;8.47;;;4.67;;
17818;SDS011;9034;50.284;19.310;2022-07-19T05:48:37;10.57;;;4.13;;
17818;SDS011;9034;50.284;19.310;2022-07-19T05:49:42;16.83;;;4.87;;
17818;SDS011;9034;50.284;19.310;2022-07-19T05:50:46;6.70;;;3.53;;
17818;SDS011;9034;50.284;19.310;2022-07-19T05:51:49;9.63;;;3.90;;
17818;SDS011;9034;50.284;19.310;2022-07-19T05:52:53;9.43;;;3.90;;
17818;SDS011;9034;50.284;19.310;2022-07-19T05:53:57;7.40;;;4.20;;
17818;SDS011;9034;50.284;19.310;2022-07-19T05:55:03;8.37;;;4.10;;
17818;SDS011;9034;50.284;19.310;2022-07-19T05:56:10;12.23;;;4.13;;
17818;SDS011;9034;50.284;19.310;2022-07-19T05:57:14;9.13;;;3.90;;
17818;SDS011;9034;50.284;19.310;2022-07-19T05:58:17;8.77;;;3.93;;
17818;SDS011;9034;50.284;19.310;2022-07-19T05:59:22;7.87;;;4.40;;
17818;SDS011;9034;50.284;19.310;2022-07-19T06:00:28;9.07;;;4.87;;
17818;SDS011;9034;50.284;19.310;2022-07-19T06:01:31;5.60;;;3.40;;
17818;SDS011;9034;50.284;19.310;2022-07-19T06:02:36;8.43;;;3.90;;
17818;SDS011;9034;50.284;19.310;2022-07-19T06:03:39;6.90;;;3.63;;
17818;SDS011;9034;50.284;19.310;2022-07-19T06:04:43;10.63;;;4.07;;
17818;SDS011;9034;50.284;19.310;2022-07-19T06:05:48;8.17;;;4.10;;
17818;SDS011;9034;50.284;19.310;2022-07-19T06:06:51;6.77;;;4.10;;
17818;SDS011;9034;50.284;19.310;2022-07-19T06:07:55;9.30;;;4.10;;
17818;SDS011;9034;50.284;19.310;2022-07-19T06:08:59;6.27;;;3.80;;
17818;SDS011;9034;50.284;19.310;2022-07-19T06:10:03;8.83;;;4.07;;
17818;SDS011;9034;50.284;19.310;2022-07-19T06:11:07;8.07;;;3.90;;
17818;SDS011;9034;50.284;19.310;2022-07-19T06:12:12;8.10;;;4.73;;
17818;SDS011;9034;50.284;19.310;2022-07-19T06:13:16;13.37;;;4.70;;
17818;SDS011;9034;50.284;19.310;2022-07-19T06:14:22;6.30;;;3.83;;
17818;SDS011;9034;50.284;19.310;2022-07-19T06:15:28;9.67;;;3.73;;
17818;SDS011;9034;50.284;19.310;2022-07-19T06:16:31;5.93;;;3.73;;
17818;SDS011;9034;50.284;19.310;2022-07-19T06:17:36;8.87;;;4.13;;
17818;SDS011;9034;50.284;19.310;2022-07-19T06:18:40;8.27;;;4.07;;
17818;SDS011;9034;50.284;19.310;2022-07-19T06:19:44;7.73;;;3.20;;
17818;SDS011;9034;50.284;19.310;2022-07-19T06:20:49;7.00;;;3.70;;
17818;SDS011;9034;50.284;19.310;2022-07-19T06:21:52;6.17;;;4.07;;
17818;SDS011;9034;50.284;19.310;2022-07-19T06:22:56;7.10;;;3.33;;
17818;SDS011;9034;50.284;19.310;2022-07-19T06:23:59;6.67;;;3.87;;
17818;SDS011;9034;50.284;19.310;2022-07-19T06:25:04;7.97;;;4.30;;
17818;SDS011;9034;50.284;19.310;2022-07-19T06:26:09;5.53;;;3.50;;
17818;SDS011;9034;50.284;19.310;2022-07-19T06:27:14;10.50;;;4.30;;